Air Quality Table

TIMESTAMP NO2 SO2 O3 PM10 PM2.5 CO TEMP HUM AIRPRES WS WD NO BENZENE
2022-08-08 17:00 22.24 µg/m3 0.42 µg/m3 80.81 µg/m3 20.73 µg/m3 14.65 µg/m3 0.48 mg/m3 29.31 °C 71.98 % 1,011.90 mbar 3.82 m/s 60.38 Deg 21.66 µg/m3 1.36 µg/m3
2022-08-08 16:00 24.9 µg/m3 0.44 µg/m3 81.46 µg/m3 20.92 µg/m3 14.69 µg/m3 0.4 mg/m3 29.41 °C 72.3 % 1,011.68 mbar 3.81 m/s 55.43 Deg 18.68 µg/m3 1.42 µg/m3
2022-08-08 15:00 20.78 µg/m3 0.4 µg/m3 80.69 µg/m3 21.11 µg/m3 14.67 µg/m3 0.46 mg/m3 29.53 °C 71.4 % 1,011.80 mbar 3.46 m/s 57.58 Deg 19.97 µg/m3 1.1 µg/m3
2022-08-08 14:00 21.03 µg/m3 0.36 µg/m3 78.54 µg/m3 23.29 µg/m3 15.47 µg/m3 0.43 mg/m3 29.27 °C 74.23 % 1,012.34 mbar 3.91 m/s 62.37 Deg 21.15 µg/m3 1.05 µg/m3
2022-08-08 13:00 25.83 µg/m3 0.37 µg/m3 89.04 µg/m3 28.74 µg/m3 16.45 µg/m3 0.36 mg/m3 29.57 °C 73.93 % 1,012.22 mbar 3.49 m/s 46.22 Deg 18.91 µg/m3 1.1 µg/m3
2022-08-08 12:00 26.44 µg/m3 0.4 µg/m3 74.1 µg/m3 23.76 µg/m3 14.82 µg/m3 0.36 mg/m3 29.47 °C 73.15 % 1,012.40 mbar 3.11 m/s 39.38 Deg 19.65 µg/m3 1 µg/m3
2022-08-08 11:00 32.2 µg/m3 0.45 µg/m3 64.63 µg/m3 24.03 µg/m3 14.11 µg/m3 0.35 mg/m3 29.7 °C 69.33 % 1,012.43 mbar 2.6 m/s 44.22 Deg 25.36 µg/m3 1.15 µg/m3
2022-08-08 10:00 29 µg/m3 0.51 µg/m3 53.26 µg/m3 28.29 µg/m3 14.75 µg/m3 0.36 mg/m3 29.48 °C 68.48 % 1,012.36 mbar 2.65 m/s 54.95 Deg 30.74 µg/m3 1.31 µg/m3
2022-08-08 09:00 32.82 µg/m3 0.56 µg/m3 44.84 µg/m3 26.8 µg/m3 13.75 µg/m3 0.45 mg/m3 29.58 °C 62.48 % 1,012.04 mbar 2.35 m/s 59.68 Deg 37.93 µg/m3 1.47 µg/m3
2022-08-08 08:00 54.81 µg/m3 0.88 µg/m3 18.62 µg/m3 61.99 µg/m3 20.49 µg/m3 0.47 mg/m3 28.95 °C 69.12 % 1,011.66 mbar 1.07 m/s 46.48 Deg 53.43 µg/m3 2.78 µg/m3
2022-08-08 07:00 52.27 µg/m3 1.02 µg/m3 6.9 µg/m3 32.22 µg/m3 21.16 µg/m3 0.68 mg/m3 27.92 °C 78.17 % 1,011.17 mbar 0.94 m/s 55.87 Deg 62.38 µg/m3 2.47 µg/m3
2022-08-08 06:00 45.14 µg/m3 0.62 µg/m3 2.83 µg/m3 29.91 µg/m3 20.55 µg/m3 0.4 mg/m3 27.3 °C 79.73 % 1,010.77 mbar 0.47 m/s 142.14 Deg 31.96 µg/m3 1.99 µg/m3
2022-08-08 05:00 39.62 µg/m3 0.45 µg/m3 5.16 µg/m3 23.53 µg/m3 16.5 µg/m3 0.31 mg/m3 27.16 °C 78.12 % 1,010.36 mbar 0.73 m/s 112.88 Deg 15.5 µg/m3 0.73 µg/m3
2022-08-08 04:00 16.53 µg/m3 0.23 µg/m3 32.24 µg/m3 20.67 µg/m3 14.67 µg/m3 0.18 mg/m3 27.41 °C 76.64 % 1,010.09 mbar 0.73 m/s 226.68 Deg 1.25 µg/m3 0.68 µg/m3
2022-08-08 03:00 10.22 µg/m3 0.16 µg/m3 42.32 µg/m3 20.62 µg/m3 14.85 µg/m3 0.16 mg/m3 27.39 °C 79.21 % 1,010.17 mbar 0.44 m/s 180.39 Deg 1.62 µg/m3 0.26 µg/m3
2022-08-08 02:00 6.26 µg/m3 0.17 µg/m3 50.94 µg/m3 20.81 µg/m3 14.63 µg/m3 0.13 mg/m3 27.43 °C 82.62 % 1,010.28 mbar 0.94 m/s 222.83 Deg 0.13 µg/m3 0.31 µg/m3
2022-08-08 01:00 11.21 µg/m3 0.17 µg/m3 50.28 µg/m3 20.07 µg/m3 14.12 µg/m3 0.16 mg/m3 27.61 °C 82.02 % 1,010.51 mbar 1.04 m/s 249.77 Deg 1.58 µg/m3 0.37 µg/m3
2022-08-08 00:00 10.93 µg/m3 0.16 µg/m3 49.99 µg/m3 20.21 µg/m3 14.39 µg/m3 0.17 mg/m3 27.64 °C 82.17 % 1,010.86 mbar 1.29 m/s 238.18 Deg 0.84 µg/m3 0.42 µg/m3
2022-08-07 23:00 16.3 µg/m3 0.2 µg/m3 46.82 µg/m3 22.43 µg/m3 15.66 µg/m3 0.2 mg/m3 27.93 °C 80.32 % 1,010.94 mbar 1.16 m/s 231.75 Deg 1.08 µg/m3 0.58 µg/m3
2022-08-07 22:00 19.47 µg/m3 0.2 µg/m3 49.76 µg/m3 25.06 µg/m3 15.73 µg/m3 0.24 mg/m3 28.44 °C 74.23 % 1,010.91 mbar 1.34 m/s 254.03 Deg 1.33 µg/m3 0.84 µg/m3
2022-08-07 21:00 20.02 µg/m3 0.19 µg/m3 52.33 µg/m3 24.36 µg/m3 16.88 µg/m3 0.27 mg/m3 28.48 °C 73.99 % 1,010.81 mbar 1.09 m/s 270.05 Deg 3.19 µg/m3 0.68 µg/m3
2022-08-07 20:00 17.39 µg/m3 0.19 µg/m3 67.53 µg/m3 25.33 µg/m3 15.57 µg/m3 0.23 mg/m3 28.48 °C 75.29 % 1,010.38 mbar 1.61 m/s 297.6 Deg 2.1 µg/m3 0.47 µg/m3
2022-08-07 19:00 23.41 µg/m3 0.22 µg/m3 72.46 µg/m3 24.74 µg/m3 14.25 µg/m3 0.25 mg/m3 29.16 °C 70.08 % 1,009.93 mbar 2.19 m/s 311.9 Deg 3.21 µg/m3 0.84 µg/m3

It is to be noted that the data is provisional and subject to quality assurance procedures. For validated data kindly refer your request to contact.air@era.org.mt